Aviation Digital Data Service (ADDS)

Output produced by METARs form (2155 UTC 16 February 2019)
found at http://www.aviationweather.gov/metar/data/
 
Forecast for: NFTV (VAVA'U ISLAND , FJ)
Text: TAF NFTV 161725Z 1618/1718 03008KT 9999 FEW020
Forecast period: 1800 UTC 16 February 2019 to 1800 UTC 17 February 2019
Forecast type: FROM: standard forecast or significant change
Winds: from the NNE (30 degrees) at 9 MPH (8 knots; 4.1 m/s)
Visibility: 6 or more miles 10+ km)
Ceiling: at least 12,000 feet AGL
Clouds: few clouds at 2000 feet AGL
Weather: no significant weather forecast for this period